createdAt,value
2022-08-21T00:02:05.435Z,73.12
2022-08-21T00:04:33.234Z,73.21
2022-08-21T00:07:01.134Z,73.33
2022-08-21T00:09:29.348Z,73.50
2022-08-21T00:11:57.339Z,73.65
2022-08-21T00:14:26.425Z,73.75
2022-08-21T00:17:00.145Z,73.94
2022-08-21T00:19:29.573Z,74.14
2022-08-21T00:21:58.509Z,74.19
2022-08-21T00:24:28.204Z,74.32
2022-08-21T00:26:56.987Z,74.41
2022-08-21T00:29:25.429Z,74.53
2022-08-21T00:31:55.177Z,74.64
2022-08-21T00:34:22.982Z,74.75
2022-08-21T00:36:51.532Z,74.86
2022-08-21T00:39:19.972Z,74.93
2022-08-21T00:41:50.501Z,75.02
2022-08-21T00:44:18.703Z,75.10
2022-08-21T00:46:47.745Z,75.08
2022-08-21T00:49:16.032Z,75.17
2022-08-21T00:51:53.418Z,75.30
2022-08-21T00:54:25.823Z,75.43
2022-08-21T00:56:57.448Z,75.53
2022-08-21T00:59:31.224Z,75.69
2022-08-21T01:01:59.749Z,75.55
2022-08-21T01:04:28.276Z,75.49
2022-08-21T01:06:57.049Z,75.62
2022-08-21T01:09:25.572Z,75.77
2022-08-21T01:11:53.374Z,75.81
2022-08-21T01:14:22.662Z,75.96
2022-08-21T01:16:54.346Z,76.03
2022-08-21T01:19:25.136Z,76.10
2022-08-21T01:21:54.859Z,76.13
2022-08-21T01:24:23.929Z,76.19
2022-08-21T01:26:52.527Z,76.29
2022-08-21T01:29:44.061Z,76.34
2022-08-21T01:32:16.234Z,76.46
2022-08-21T01:34:48.096Z,76.47
2022-08-21T01:37:18.015Z,76.58
2022-08-21T01:39:46.939Z,76.48
2022-08-21T01:42:15.493Z,76.63
2022-08-21T01:44:44.366Z,76.71
2022-08-21T01:47:18.236Z,76.73
2022-08-21T01:49:46.852Z,76.88
2022-08-21T01:52:15.097Z,76.85
2022-08-21T01:54:43.982Z,76.97
2022-08-21T01:57:15.171Z,77.07
2022-08-21T01:59:43.514Z,77.16
2022-08-21T02:02:11.717Z,77.26
2022-08-21T02:04:40.947Z,77.36
2022-08-21T02:07:10.357Z,77.40
2022-08-21T02:09:40.269Z,77.39
2022-08-21T02:12:09.632Z,77.55
2022-08-21T02:14:37.601Z,77.66
2022-08-21T02:17:09.831Z,77.64
2022-08-21T02:19:40.520Z,77.69
2022-08-21T02:22:12.118Z,77.77
2022-08-21T02:24:53.827Z,77.89
2022-08-21T02:27:27.462Z,78.25
2022-08-21T02:29:58.736Z,78.25
2022-08-21T02:32:27.242Z,78.33
2022-08-21T02:34:56.603Z,78.40
2022-08-21T02:37:25.670Z,78.49
2022-08-21T02:39:53.708Z,78.53
2022-08-21T02:42:22.959Z,78.61
2022-08-21T02:44:52.033Z,78.68
2022-08-21T02:47:19.818Z,78.69
2022-08-21T02:49:48.382Z,78.76
2022-08-21T02:52:17.373Z,78.79
2022-08-21T02:54:45.102Z,78.89
2022-08-21T02:57:13.754Z,78.94
2022-08-21T02:59:42.307Z,79.08
2022-08-21T03:02:10.721Z,79.11
2022-08-21T03:04:41.365Z,79.16
2022-08-21T03:07:11.558Z,79.15
2022-08-21T03:09:45.543Z,78.98
2022-08-21T03:12:27.899Z,79.05
2022-08-21T03:14:59.378Z,79.08
2022-08-21T03:17:30.003Z,79.14
2022-08-21T03:19:59.657Z,79.30
2022-08-21T03:22:30.710Z,79.28
2022-08-21T03:25:01.547Z,79.30
2022-08-21T03:27:35.807Z,79.36
2022-08-21T03:30:09.125Z,79.42
2022-08-21T03:32:37.691Z,79.46
2022-08-21T03:35:06.677Z,79.54
2022-08-21T03:37:35.497Z,79.68
2022-08-21T03:40:08.807Z,79.72
2022-08-21T03:42:37.126Z,79.94
2022-08-21T03:45:07.020Z,80.09
2022-08-21T03:47:34.823Z,80.04
2022-08-21T03:50:05.643Z,80.21
2022-08-21T03:52:33.420Z,80.25
2022-08-21T03:55:01.146Z,80.23
2022-08-21T03:57:28.965Z,80.25
2022-08-21T03:59:57.192Z,80.32
2022-08-21T04:02:25.107Z,80.41
2022-08-21T04:04:52.871Z,80.46
2022-08-21T04:07:20.705Z,80.52
2022-08-21T04:09:48.527Z,80.58
2022-08-21T04:12:16.365Z,80.63
2022-08-21T04:14:44.151Z,80.76
2022-08-21T04:17:11.952Z,80.78
2022-08-21T04:19:39.773Z,80.83
2022-08-21T04:22:07.486Z,80.92
2022-08-21T04:24:35.755Z,80.98
2022-08-21T04:27:03.699Z,81.04
2022-08-21T04:29:31.998Z,81.08
2022-08-21T04:32:02.807Z,81.10
2022-08-21T04:34:30.557Z,81.12
2022-08-21T04:36:58.326Z,81.08
2022-08-21T04:39:29.723Z,81.07
2022-08-21T04:41:58.156Z,81.14
2022-08-21T04:44:25.967Z,81.07
2022-08-21T04:46:54.113Z,81.06
2022-08-21T04:49:21.859Z,81.07
2022-08-21T04:51:50.729Z,81.06
2022-08-21T04:54:23.309Z,81.02
2022-08-21T04:56:55.743Z,81.10
2022-08-21T04:59:33.052Z,81.02
2022-08-21T05:02:03.002Z,81.01
2022-08-21T05:04:34.438Z,80.96
2022-08-21T05:07:07.599Z,81.01
2022-08-21T05:09:38.015Z,81.00
2022-08-21T05:12:06.788Z,80.90
2022-08-21T05:14:34.655Z,80.66
2022-08-21T05:17:02.431Z,80.56
2022-08-21T05:19:30.353Z,80.49
2022-08-21T05:21:59.078Z,80.45
2022-08-21T05:24:27.485Z,80.33
2022-08-21T05:26:55.349Z,80.09
2022-08-21T05:29:23.266Z,79.95
2022-08-21T05:31:52.802Z,79.78
2022-08-21T05:34:24.491Z,79.64
2022-08-21T05:36:52.719Z,79.50
2022-08-21T05:39:20.496Z,79.40
2022-08-21T05:41:49.190Z,79.22
2022-08-21T05:44:17.037Z,79.04
2022-08-21T05:46:45.322Z,78.85
2022-08-21T05:49:13.663Z,78.72
2022-08-21T05:51:43.420Z,78.60
2022-08-21T05:54:12.540Z,78.46
2022-08-21T05:56:40.300Z,78.26
2022-08-21T05:59:09.193Z,78.14
2022-08-21T06:01:37.125Z,78.04
2022-08-21T06:04:06.299Z,77.84
2022-08-21T06:06:35.411Z,77.72
2022-08-21T06:09:05.422Z,77.61
2022-08-21T06:11:33.516Z,77.48
2022-08-21T06:14:01.545Z,77.36
2022-08-21T06:16:30.838Z,77.28
2022-08-21T06:19:02.634Z,77.08
2022-08-21T06:21:31.500Z,76.98
2022-08-21T06:23:59.318Z,76.69
2022-08-21T06:26:29.426Z,76.48
2022-08-21T06:28:59.931Z,76.29
2022-08-21T06:31:29.928Z,75.96
2022-08-21T06:33:58.878Z,75.61
2022-08-21T06:36:27.039Z,75.49
2022-08-21T06:38:57.835Z,75.44
2022-08-21T06:41:27.229Z,75.30
2022-08-21T06:43:58.523Z,75.27
2022-08-21T06:46:30.527Z,74.81
2022-08-21T06:49:00.109Z,74.59
2022-08-21T06:51:28.675Z,74.57
2022-08-21T06:53:59.444Z,74.80
2022-08-21T06:56:27.999Z,73.91
2022-08-21T06:58:57.994Z,73.91
2022-08-21T07:01:28.802Z,73.98
2022-08-21T07:03:56.624Z,73.85
2022-08-21T07:06:26.309Z,73.30
2022-08-21T07:08:54.161Z,72.77
2022-08-21T07:11:27.402Z,72.70
2022-08-21T07:13:57.713Z,72.51
2022-08-21T07:16:25.660Z,72.40
2022-08-21T07:18:54.107Z,71.97
2022-08-21T07:21:25.818Z,68.99
2022-08-21T07:23:55.262Z,64.71
2022-08-21T07:26:25.407Z,60.58
2022-08-21T07:28:55.486Z,54.87
2022-08-21T07:31:26.210Z,53.59
2022-08-21T07:33:55.466Z,50.07
2022-08-21T07:36:24.831Z,46.53
2022-08-21T07:38:53.170Z,44.44
2022-08-21T07:41:29.592Z,42.00
2022-08-21T07:44:01.177Z,39.31
2022-08-21T07:46:29.114Z,37.32
2022-08-21T07:48:57.523Z,36.10
2022-08-21T07:51:30.380Z,34.83
2022-08-21T07:54:00.721Z,33.63
2022-08-21T07:56:32.511Z,32.79
2022-08-21T07:59:00.553Z,31.25
2022-08-21T08:01:28.875Z,30.25
2022-08-21T08:03:57.415Z,29.49
2022-08-21T08:06:26.813Z,29.00
2022-08-21T08:08:54.743Z,28.36
2022-08-21T08:11:23.736Z,27.62
2022-08-21T08:13:53.539Z,27.36
2022-08-21T08:16:21.303Z,26.96
2022-08-21T08:18:51.560Z,27.12
2022-08-21T08:21:22.322Z,26.83
2022-08-21T08:23:51.051Z,25.76
2022-08-21T08:26:18.883Z,26.75
2022-08-21T08:28:49.085Z,26.56
2022-08-21T08:31:16.884Z,26.29
2022-08-21T08:33:45.084Z,25.94
2022-08-21T08:36:16.041Z,26.31
2022-08-21T08:38:44.534Z,26.27
2022-08-21T08:41:15.283Z,26.11
2022-08-21T08:43:53.360Z,25.92
2022-08-21T08:46:47.740Z,25.51
2022-08-21T08:49:36.407Z,25.35
2022-08-21T08:52:29.762Z,25.29
2022-08-21T08:55:25.360Z,25.05
2022-08-21T08:57:58.466Z,25.18
2022-08-21T09:00:26.535Z,25.22
2022-08-21T09:02:59.780Z,25.64
2022-08-21T09:05:47.303Z,25.97
2022-08-21T09:08:39.236Z,27.08
2022-08-21T09:11:25.636Z,27.98
2022-08-21T09:14:15.383Z,29.74
2022-08-21T09:16:52.196Z,29.91
2022-08-21T09:19:36.624Z,30.15
2022-08-21T09:22:16.841Z,29.94
2022-08-21T09:25:13.011Z,29.59
2022-08-21T09:27:40.860Z,29.64
2022-08-21T09:30:11.600Z,29.74
2022-08-21T09:32:40.533Z,29.58
2022-08-21T09:35:15.035Z,29.03
2022-08-21T09:38:02.018Z,28.96
2022-08-21T09:40:41.813Z,27.93
2022-08-21T09:43:12.684Z,28.64
2022-08-21T09:45:46.721Z,28.95
2022-08-21T09:48:16.261Z,29.28
2022-08-21T09:50:45.091Z,29.47
2022-08-21T09:53:29.090Z,30.07
2022-08-21T09:56:24.390Z,31.29
2022-08-21T09:58:53.444Z,32.77
2022-08-21T10:01:24.282Z,34.22
2022-08-21T10:04:09.166Z,35.04
2022-08-21T10:06:37.505Z,35.68
2022-08-21T10:09:05.249Z,36.63
2022-08-21T10:11:35.537Z,37.15
2022-08-21T10:14:16.002Z,36.92
2022-08-21T10:17:15.615Z,37.03
2022-08-21T10:20:12.663Z,37.75
2022-08-21T10:23:06.837Z,37.34
2022-08-21T10:25:56.420Z,38.06
2022-08-21T10:28:45.354Z,38.23
2022-08-21T10:31:41.001Z,39.49
2022-08-21T10:34:17.981Z,39.38
2022-08-21T10:36:57.315Z,38.84
2022-08-21T10:39:36.541Z,39.15
2022-08-21T10:42:28.663Z,38.08
2022-08-21T10:45:20.093Z,38.61
2022-08-21T10:47:58.146Z,38.47
2022-08-21T10:50:43.037Z,38.53
2022-08-21T10:53:32.569Z,38.55
2022-08-21T10:56:24.984Z,38.64
2022-08-21T10:59:20.629Z,38.50
2022-08-21T11:02:01.945Z,38.75
2022-08-21T11:04:49.375Z,38.49
2022-08-21T11:07:27.074Z,38.71
2022-08-21T11:10:06.942Z,37.42
2022-08-21T11:12:44.434Z,37.22
2022-08-21T11:15:48.973Z,37.70
2022-08-21T11:18:33.662Z,38.33
2022-08-21T11:21:17.563Z,38.91
2022-08-21T11:23:58.674Z,38.03
2022-08-21T11:26:36.449Z,38.76
2022-08-21T11:29:18.041Z,39.28
2022-08-21T11:32:24.097Z,38.16
2022-08-21T11:35:23.813Z,38.31
2022-08-21T11:37:57.173Z,39.39
2022-08-21T11:40:57.871Z,39.27
2022-08-21T11:43:38.917Z,39.95
2022-08-21T11:46:25.419Z,40.19
2022-08-21T11:49:06.904Z,38.92
2022-08-21T11:51:42.451Z,39.24
2022-08-21T11:54:35.406Z,38.64
2022-08-21T11:57:09.509Z,39.24
2022-08-21T11:59:46.507Z,39.39
2022-08-21T12:02:19.551Z,40.17
2022-08-21T12:04:55.438Z,40.57
2022-08-21T12:07:34.570Z,40.72
2022-08-21T12:10:09.228Z,41.22
2022-08-21T12:12:40.339Z,40.87
2022-08-21T12:15:17.362Z,41.67
2022-08-21T12:18:08.736Z,41.78
2022-08-21T12:20:50.001Z,42.37
2022-08-21T12:23:27.927Z,42.83
2022-08-21T12:26:15.413Z,43.36
2022-08-21T12:28:43.195Z,43.10
2022-08-21T12:31:26.774Z,43.68
2022-08-21T12:34:03.831Z,43.47
2022-08-21T12:36:56.870Z,43.89
2022-08-21T12:39:28.742Z,44.31
2022-08-21T12:42:24.122Z,44.49
2022-08-21T12:45:02.070Z,44.95
2022-08-21T12:47:46.075Z,45.01
2022-08-21T12:50:22.127Z,44.78
2022-08-21T12:53:00.501Z,44.88
2022-08-21T12:55:33.717Z,44.97
2022-08-21T12:58:04.189Z,44.99
2022-08-21T13:00:32.667Z,45.13
2022-08-21T13:03:02.136Z,45.23
2022-08-21T13:05:37.628Z,45.09
2022-08-21T13:08:09.174Z,45.47
2022-08-21T13:10:38.909Z,45.60
2022-08-21T13:13:15.478Z,45.45
2022-08-21T13:16:00.215Z,45.56
2022-08-21T13:18:32.890Z,46.27
2022-08-21T13:21:12.637Z,46.43
2022-08-21T13:23:42.029Z,46.10
2022-08-21T13:26:20.386Z,46.28
2022-08-21T13:28:50.596Z,46.80
2022-08-21T13:31:26.507Z,46.75
2022-08-21T13:33:56.294Z,47.10
2022-08-21T13:36:38.327Z,47.11
2022-08-21T13:39:10.760Z,46.82
2022-08-21T13:41:42.804Z,47.27
2022-08-21T13:44:21.159Z,47.71
2022-08-21T13:46:51.725Z,47.57
2022-08-21T13:49:29.173Z,47.10
2022-08-21T13:51:58.003Z,47.64
2022-08-21T13:54:31.468Z,48.25
2022-08-21T13:56:59.531Z,47.74
2022-08-21T13:59:37.994Z,48.58
2022-08-21T14:02:15.334Z,48.69
2022-08-21T14:04:57.772Z,48.64
2022-08-21T14:07:37.408Z,49.00
2022-08-21T14:10:17.406Z,48.94
2022-08-21T14:12:56.984Z,49.03
2022-08-21T14:15:35.225Z,49.07
2022-08-21T14:18:18.542Z,49.17
2022-08-21T14:20:47.611Z,49.57
2022-08-21T14:23:29.564Z,49.56
2022-08-21T14:26:06.191Z,49.27
2022-08-21T14:28:42.059Z,49.26
2022-08-21T14:31:21.954Z,49.53
2022-08-21T14:33:51.224Z,49.41
2022-08-21T14:36:18.945Z,49.82
2022-08-21T14:38:49.191Z,50.05
2022-08-21T14:41:22.865Z,49.92
2022-08-21T14:44:05.928Z,50.08
2022-08-21T14:46:47.302Z,50.39
2022-08-21T14:49:29.815Z,50.19
2022-08-21T14:52:00.361Z,50.17
2022-08-21T14:54:32.743Z,50.44
2022-08-21T14:57:06.327Z,50.39
2022-08-21T14:59:36.525Z,50.59
2022-08-21T15:02:06.126Z,50.81
2022-08-21T15:04:35.699Z,50.51
2022-08-21T15:07:07.738Z,50.81
2022-08-21T15:09:36.814Z,51.08
2022-08-21T15:12:07.010Z,51.08
2022-08-21T15:14:39.463Z,51.03
2022-08-21T15:17:11.840Z,51.21
2022-08-21T15:19:42.000Z,51.20
2022-08-21T15:22:18.762Z,51.25
2022-08-21T15:24:50.522Z,51.35
2022-08-21T15:27:20.953Z,51.53
2022-08-21T15:29:51.373Z,51.46
2022-08-21T15:32:24.902Z,51.53
2022-08-21T15:34:55.126Z,52.01
2022-08-21T15:37:26.179Z,51.78
2022-08-21T15:39:55.601Z,51.80
2022-08-21T15:42:27.895Z,51.96
2022-08-21T15:44:58.634Z,51.94
2022-08-21T15:47:32.622Z,52.06
2022-08-21T15:50:03.386Z,52.15
2022-08-21T15:52:32.894Z,52.44
2022-08-21T15:55:01.876Z,52.77
2022-08-21T15:57:32.395Z,52.92
2022-08-21T16:00:14.197Z,53.38
2022-08-21T16:02:49.457Z,53.44
2022-08-21T16:05:19.605Z,53.42
2022-08-21T16:07:50.525Z,53.34
2022-08-21T16:10:24.072Z,53.63
2022-08-21T16:13:04.540Z,53.50
2022-08-21T16:15:32.577Z,53.49
2022-08-21T16:18:03.313Z,53.90
2022-08-21T16:20:31.345Z,54.20
2022-08-21T16:23:01.822Z,54.01
2022-08-21T16:25:38.308Z,53.99
2022-08-21T16:28:14.703Z,54.34
2022-08-21T16:30:48.179Z,54.23
2022-08-21T16:33:26.746Z,54.23
2022-08-21T16:35:54.995Z,54.20
2022-08-21T16:38:24.182Z,54.60
2022-08-21T16:40:52.666Z,54.92
2022-08-21T16:43:31.048Z,54.89
2022-08-21T16:46:02.953Z,55.01
2022-08-21T16:48:32.348Z,54.69
2022-08-21T16:51:01.520Z,54.80
2022-08-21T16:53:30.642Z,55.00
2022-08-21T16:55:59.950Z,55.01
2022-08-21T16:58:35.338Z,55.04
2022-08-21T17:01:16.396Z,55.07
2022-08-21T17:03:51.375Z,55.30
2022-08-21T17:06:23.127Z,55.22
2022-08-21T17:09:02.689Z,55.39
2022-08-21T17:11:42.214Z,55.65
2022-08-21T17:14:21.105Z,55.74
2022-08-21T17:16:54.301Z,56.07
2022-08-21T17:19:25.483Z,56.22
2022-08-21T17:21:53.599Z,56.27
2022-08-21T17:24:22.733Z,56.54
2022-08-21T17:26:56.743Z,56.92
2022-08-21T17:29:35.250Z,56.59
2022-08-21T17:32:14.142Z,56.74
2022-08-21T17:34:45.182Z,56.51
2022-08-21T17:37:16.044Z,56.89
2022-08-21T17:39:43.887Z,56.94
2022-08-21T17:42:14.520Z,56.90
2022-08-21T17:44:46.023Z,56.92
2022-08-21T17:47:15.301Z,57.03
2022-08-21T17:49:43.267Z,57.24
2022-08-21T17:52:11.087Z,57.31
2022-08-21T17:54:42.589Z,57.09
2022-08-21T17:57:19.527Z,57.17
2022-08-21T17:59:54.125Z,57.26
2022-08-21T18:02:30.645Z,57.32
2022-08-21T18:04:58.371Z,57.33
2022-08-21T18:07:32.750Z,57.30
2022-08-21T18:10:07.556Z,57.31
2022-08-21T18:12:38.468Z,57.35
2022-08-21T18:15:08.967Z,57.54
2022-08-21T18:17:38.428Z,57.77
2022-08-21T18:20:09.582Z,57.81
2022-08-21T18:22:38.164Z,57.89
2022-08-21T18:25:06.387Z,58.17
2022-08-21T18:27:34.301Z,58.03
2022-08-21T18:30:02.149Z,58.11
2022-08-21T18:32:31.637Z,58.23
2022-08-21T18:35:03.992Z,58.37
2022-08-21T18:37:33.811Z,58.40
2022-08-21T18:40:03.006Z,58.32
2022-08-21T18:42:36.335Z,58.60
2022-08-21T18:45:08.892Z,58.59
2022-08-21T18:47:41.534Z,58.80
2022-08-21T18:50:12.750Z,59.24
2022-08-21T18:55:30.201Z,59.60
2022-08-21T18:57:58.968Z,59.34
2022-08-21T19:00:30.657Z,59.36
2022-08-21T19:03:01.384Z,59.36
2022-08-21T19:05:29.585Z,59.31
2022-08-21T19:07:59.725Z,59.28
2022-08-21T19:10:31.934Z,59.41
2022-08-21T19:13:02.261Z,59.47
2022-08-21T19:15:34.537Z,59.53
2022-08-21T19:18:05.422Z,59.63
2022-08-21T19:20:38.877Z,59.80
2022-08-21T19:23:08.479Z,59.68
2022-08-21T19:25:41.921Z,59.77
2022-08-21T19:28:15.946Z,59.93
2022-08-21T19:30:53.283Z,59.83
2022-08-21T19:33:30.270Z,59.82
2022-08-21T19:36:00.377Z,59.95
2022-08-21T19:38:29.208Z,60.11
2022-08-21T19:40:59.154Z,59.96
2022-08-21T19:43:29.659Z,60.06
2022-08-21T19:46:00.858Z,60.21
2022-08-21T19:48:28.797Z,60.40
2022-08-21T19:50:56.591Z,60.35
2022-08-21T19:53:24.447Z,60.63
2022-08-21T19:55:53.741Z,60.90
2022-08-21T19:58:41.840Z,61.02
2022-08-21T20:01:16.856Z,61.18
2022-08-21T20:03:54.147Z,61.06
2022-08-21T20:06:26.689Z,61.15
2022-08-21T20:08:57.040Z,61.24
2022-08-21T20:11:37.908Z,61.29
2022-08-21T20:14:08.827Z,61.39
2022-08-21T20:16:39.258Z,61.56
2022-08-21T20:19:11.415Z,61.56
2022-08-21T20:21:44.618Z,61.55
2022-08-21T20:27:07.682Z,61.82
2022-08-21T20:29:39.440Z,61.94
2022-08-21T20:32:12.289Z,62.15
2022-08-21T20:34:41.900Z,62.35
2022-08-21T20:40:11.159Z,62.63
2022-08-21T20:42:48.626Z,62.70
2022-08-21T20:45:21.854Z,62.86
2022-08-21T20:48:03.136Z,62.96
2022-08-21T20:50:37.236Z,63.17
2022-08-21T20:53:26.182Z,63.27
2022-08-21T20:56:22.955Z,63.45
2022-08-21T20:59:16.904Z,63.55
2022-08-21T21:01:49.827Z,63.80
2022-08-21T21:04:30.483Z,63.91
2022-08-21T21:07:01.801Z,64.20
2022-08-21T21:09:45.029Z,64.42
2022-08-21T21:12:35.729Z,64.45
2022-08-21T21:15:27.974Z,64.71
2022-08-21T21:18:25.119Z,64.73
2022-08-21T21:21:13.226Z,64.95
2022-08-21T21:23:54.439Z,65.22
2022-08-21T21:26:29.191Z,65.30
2022-08-21T21:29:09.933Z,65.33
2022-08-21T21:31:43.743Z,65.57
2022-08-21T21:37:14.240Z,66.23
2022-08-21T21:40:02.541Z,66.41
2022-08-21T21:42:37.903Z,66.67
2022-08-21T21:45:23.479Z,66.91
2022-08-21T21:48:30.907Z,67.22
2022-08-21T21:51:16.840Z,67.25
2022-08-21T21:54:14.213Z,67.35
2022-08-21T21:57:10.543Z,67.56
2022-08-21T21:59:58.226Z,67.69
2022-08-21T22:02:51.286Z,68.02
2022-08-21T22:05:34.663Z,69.28
2022-08-21T22:08:08.661Z,69.84
2022-08-21T22:10:48.592Z,70.36
2022-08-21T22:13:46.712Z,70.62
2022-08-21T22:16:18.561Z,71.30
2022-08-21T22:19:23.987Z,71.26
2022-08-21T22:22:09.052Z,71.76
2022-08-21T22:24:45.126Z,72.57
2022-08-21T22:27:36.267Z,73.65
2022-08-21T22:30:08.390Z,73.00
2022-08-21T22:32:59.753Z,74.08
2022-08-21T22:35:33.518Z,74.52
2022-08-21T22:38:19.818Z,75.21
2022-08-21T22:40:51.806Z,75.67
2022-08-21T22:43:25.582Z,75.64
2022-08-21T22:46:06.041Z,75.58
2022-08-21T22:51:43.865Z,76.11
2022-08-21T22:54:33.934Z,74.81
2022-08-21T22:57:16.789Z,75.02
2022-08-21T23:00:25.695Z,76.36
2022-08-21T23:05:54.473Z,77.21
2022-08-21T23:08:39.265Z,76.21
2022-08-21T23:11:23.451Z,76.49
2022-08-21T23:13:56.654Z,77.57
2022-08-21T23:16:55.040Z,78.05
2022-08-21T23:22:49.012Z,78.36
2022-08-21T23:25:48.715Z,78.01
2022-08-21T23:28:41.787Z,79.51
2022-08-21T23:31:22.957Z,79.58
2022-08-21T23:34:07.620Z,79.40
2022-08-21T23:37:13.789Z,80.18
2022-08-21T23:40:07.445Z,79.42
2022-08-21T23:43:13.206Z,80.10
2022-08-21T23:46:00.167Z,80.33
2022-08-21T23:48:55.300Z,81.58
2022-08-21T23:51:45.157Z,81.52
2022-08-21T23:55:15.360Z,81.89
2022-08-21T23:57:55.560Z,81.61
